• Join FlightAware (Why Join?)
  • Login
  • US Flag 
12:43PM EDT


 

Airport Tracker/Info


-or-


 

Live Flight TrackerFlight Track Log ✈ DAL3676 ✈ 04-Feb-2014 ✈ KBNA - KLGA

Flight Track Log - Related Links

Times and Time Zones

All times are in EST time to prevent confusion due to time zone crossing. See the DAL3676 flight status page for this flight to view local times or setup timezone preferences in your user account.

Time Position Orientation Groundspeed Altitude Reporting Facility
EST Latitude Longitude Course Direction KTS MPH feet Rate Location/Type
03:11PM 36.1333 -86.6500 39° Northeast 135 155 1,600  Level Nashville TRACON
03:12PM 36.1667 -86.6333 22° Northeast 180 207 3,000 1,680 Climbing Nashville TRACON
03:13PM 36.1833 -86.5833 68° East 249 287 4,000 2,100 Climbing Nashville TRACON
03:14PM 36.1833 -86.5000 90° East 293 337 6,400 2,460 Climbing Nashville TRACON
03:15PM 36.1856 -86.3750 89° East 294 338 9,500 2,460 Climbing Memphis Center
03:16PM 36.1906 -86.2625 87° East 316 364 12,000 2,220 Climbing Memphis Center
03:17PM 36.3019 -85.7981 39° Northeast  Level FlightAware Approximate
03:17PM 36.1969 -86.1317 86° East 369 425 14,200  Level Memphis Center
03:18PM 36.2342 -85.9972 71° East 417 480 17,000 2,220 Climbing Memphis Center
03:19PM 36.2925 -85.8672 61° Northeast 435 501 18,700 1,620 Climbing Indianapolis Center
03:20PM 36.3514 -85.7364 61° Northeast 441 507 20,300 1,740 Climbing Indianapolis Center
03:21PM 36.4194 -85.5933 59° Northeast 467 537 22,300 1,860 Climbing Indianapolis Center
03:22PM 36.4894 -85.4483 59° Northeast 482 555 24,200 1,740 Climbing Indianapolis Center
03:23PM 36.5750 -85.2658 60° Northeast 502 578 26,000 1,620 Climbing Indianapolis Center
03:24PM 36.6394 -85.1053 63° Northeast 513 590 27,600 1,620 Climbing Indianapolis Center
03:25PM 36.6897 -84.9356 70° East 519 597 29,400 1,740 Climbing Indianapolis Center
03:26PM 36.7406 -84.7672 69° East 515 593 31,300 1,740 Climbing Indianapolis Center
03:27PM 36.7914 -84.6014 69° East 510 587 33,000 1,440 Climbing Indianapolis Center
03:28PM 36.8417 -84.4386 69° East 512 589 34,300 960 Climbing Indianapolis Center
03:29PM 36.9008 -84.2400 70° East 522 601 35,000 300 Climbing Indianapolis Center
03:30PM 36.9531 -84.0642 70° East 535 616 35,000  Level Indianapolis Center
03:31PM 37.0069 -83.8856 69° East 546 628 35,000  Level Indianapolis Center
03:32PM 37.0583 -83.7081 70° East 542 624 35,000  Level Indianapolis Center
03:33PM 37.1117 -83.5286 70° East 545 627 35,000  Level Indianapolis Center
03:34PM 37.1639 -83.3472 70° East 548 631 35,000  Level Indianapolis Center
03:35PM 37.2169 -83.1647 70° East 549 632 35,000  Level Indianapolis Center
03:36PM 37.2694 -82.9831 70° East 549 632 35,000  Level Indianapolis Center
03:37PM 37.3303 -82.7703 70° East 549 632 35,000  Level Indianapolis Center
03:38PM 37.3819 -82.5883 70° East 550 633 35,000  Level Indianapolis Center
03:40PM 37.4331 -82.4053 71° East 550 633 35,000  Level Indianapolis Center
03:41PM 37.4842 -82.2219 71° East 552 635 35,000  Level Indianapolis Center
03:42PM 37.5356 -82.0389 70° East 552 635 35,000  Level Indianapolis Center
03:43PM 37.5856 -81.8542 71° East 554 638 35,000  Level Indianapolis Center
03:44PM 37.6356 -81.6711 71° East 552 635 35,000  Level Indianapolis Center
03:45PM 37.6925 -81.4597 71° East 552 635 35,000  Level Indianapolis Center
03:46PM 37.7406 -81.2775 72° East 558 642 35,000  Level Indianapolis Center
03:47PM 37.7850 -81.0950 73° East 556 640 35,000  Level Indianapolis Center
03:48PM 37.7950 -80.9078 86° East 549 632 35,000  Level Indianapolis Center
03:49PM 37.8094 -80.6839 85° East 547 629 35,000  Level Indianapolis Center
03:50PM 37.8228 -80.4950 85° East 547 629 35,000  Level Washington Center
03:51PM 37.8344 -80.3036 86° East 547 629 35,000  Level Washington Center
03:52PM 37.8456 -80.1308 85° East 547 629 35,000  Level Washington Center
03:53PM 37.8586 -79.9422 85° East 547 629 35,000  Level Washington Center
03:54PM 37.8697 -79.7483 86° East 547 629 35,000  Level Washington Center
03:55PM 37.8825 -79.5567 85° East 547 629 35,000  Level Washington Center
03:56PM 37.8928 -79.3678 86° East 547 629 35,000  Level Washington Center
03:57PM 37.9028 -79.1736 86° East 552 635 35,000  Level Washington Center
03:58PM 37.9208 -78.9850 83° East 546 628 35,000  Level Washington Center
03:59PM 37.9456 -78.7753 81° East 546 628 35,000  Level Washington Center
04:00PM 37.9669 -78.5839 82° East 546 628 35,000  Level Washington Center
04:01PM 37.9903 -78.3953 81° East 546 628 35,000  Level Washington Center
04:02PM 38.0133 -78.2064 81° East 546 628 35,000  Level Washington Center
04:03PM 38.0214 -78.0194 87° East 539 620 35,000  Level Washington Center
04:04PM 38.0336 -77.8272 85° East 539 620 35,000  Level Washington Center
04:05PM 38.0453 -77.6353 86° East 539 620 35,000  Level Washington Center
04:06PM 38.0567 -77.4431 86° East 539 620 35,000  Level Washington Center
04:07PM 38.0742 -77.2561 83° East 539 620 35,000  Level Washington Center
04:08PM 38.1344 -77.1017 64° Northeast 546 628 35,000  Level Washington Center
04:09PM 38.2239 -76.9556 52° Northeast 526 605 35,000  Level Washington Center
04:10PM 38.3256 -76.7958 51° Northeast 526 605 35,000  Level Washington Center
04:11PM 38.4147 -76.6489 52° Northeast 521 600 35,000  Level Washington Center
04:12PM 38.5056 -76.5044 51° Northeast 521 600 35,000 -60 Level Washington Center
04:13PM 38.5983 -76.3542 52° Northeast 526 605 34,900 -1,140 Descending Washington Center
04:14PM 38.6867 -76.2086 52° Northeast 527 606 32,800 -2,220 Descending Washington Center
04:15PM 38.7811 -76.0631 50° Northeast 527 606 30,500 -2,220 Descending Washington Center
04:16PM 38.8711 -75.9142 52° Northeast 532 612 28,400 -2,040 Descending Washington Center
04:17PM 38.9631 -75.7758 49° Northeast 526 605 26,500 -1,800 Descending Washington Center
04:18PM 39.0717 -75.6744 36° Northeast 490 564 24,900 -1,320 Descending Washington Center
04:19PM 39.1758 -75.5703 38° Northeast 480 552 24,000 -780 Descending Washington Center
04:20PM 39.2822 -75.4708 36° Northeast 474 545 23,400 -1,080 Descending Washington Center
04:21PM 39.3883 -75.3794 34° Northeast 462 532 21,900 -1,620 Descending Washington Center
04:22PM 39.4903 -75.2903 34° Northeast 450 518 20,300 -1,620 Descending Washington Center
04:23PM 39.5919 -75.1931 36° Northeast 450 518 18,700 -1,320 Descending Washington Center
04:24PM 39.6833 -75.1117 34° Northeast 440 506 17,600 -1,500 Descending Washington Center
04:25PM 39.7892 -75.0192 34° Northeast 430 495 15,800 -1,680 Descending Washington Center
04:26PM 39.8764 -74.9428 34° Northeast 422 486 14,300 -1,680 Descending Washington Center
04:27PM 39.9633 -74.8417 42° Northeast 417 480 12,500 -1,620 Descending Washington Center
04:28PM 40.0667 -74.6833 50° Northeast 370 426 10,400 -1,020 Descending New York TRACON
04:29PM 40.1333 -74.5833 49° Northeast 331 381 10,000 -240 Descending New York TRACON
04:30PM 40.1833 -74.5167 46° Northeast 272 313 10,000 -60 Level New York TRACON
04:31PM 40.2500 -74.4500 37° Northeast 269 310 9,900 -480 Descending New York TRACON
04:32PM 40.3000 -74.3833 45° Northeast 262 302 9,100 -960 Descending New York TRACON
04:33PM 40.3500 -74.3500 27° Northeast 240 276 8,000 -960 Descending New York TRACON
04:34PM 40.4000 -74.2833 45° Northeast 233 268 7,200 -600 Descending New York TRACON
04:35PM 40.4167 -74.2000 75° East 231 266 6,800 -660 Descending New York TRACON
04:36PM 40.4500 -74.1333 57° Northeast 229 264 5,900 -900 Descending New York TRACON
04:37PM 40.5000 -74.1000 27° Northeast 213 245 5,100 -840 Descending New York TRACON
04:38PM 40.5500 -74.0667 27° Northeast 193 222 4,300 -600 Descending New York TRACON
04:39PM 40.6000 -74.0333 27° Northeast 193 222 4,000 -660 Descending New York TRACON
04:40PM 40.6333 -73.9833 49° Northeast 174 200 3,000 -840 Descending New York TRACON
04:41PM 40.6833 -73.9500 27° Northeast 173 199 2,400 -840 Descending New York TRACON
04:42PM 40.7167 -73.9333 21° North 139 160 1,400 -900 Descending New York TRACON
04:43PM 40.7500 -73.9000 37° Northeast 135 155 600 -840 Descending New York TRACON